sensor_id;sensor_type;location;lat;lon;timestamp;P1;durP1;ratioP1;P2;durP2;ratioP2
53775;SDS011;44276;49.534;6.378;2022-08-03T00:02:17;3.30;;;1.40;;
53775;SDS011;44276;49.534;6.378;2022-08-03T00:04:46;2.05;;;1.58;;
53775;SDS011;44276;49.534;6.378;2022-08-03T00:07:15;10.57;;;3.22;;
53775;SDS011;44276;49.534;6.378;2022-08-03T00:09:46;2.28;;;1.85;;
53775;SDS011;44276;49.534;6.378;2022-08-03T00:12:15;3.28;;;1.40;;
53775;SDS011;44276;49.534;6.378;2022-08-03T00:14:44;2.55;;;1.83;;
53775;SDS011;44276;49.534;6.378;2022-08-03T00:17:13;3.30;;;1.80;;
53775;SDS011;44276;49.534;6.378;2022-08-03T00:19:43;2.00;;;1.65;;
53775;SDS011;44276;49.534;6.378;2022-08-03T00:22:12;2.30;;;1.55;;
53775;SDS011;44276;49.534;6.378;2022-08-03T00:24:42;3.05;;;1.90;;
53775;SDS011;44276;49.534;6.378;2022-08-03T00:27:11;8.40;;;3.13;;
53775;SDS011;44276;49.534;6.378;2022-08-03T00:29:42;2.25;;;1.48;;
53775;SDS011;44276;49.534;6.378;2022-08-03T00:32:25;3.17;;;1.80;;
53775;SDS011;44276;49.534;6.378;2022-08-03T00:34:59;2.45;;;2.00;;
53775;SDS011;44276;49.534;6.378;2022-08-03T00:37:35;4.20;;;1.55;;
53775;SDS011;44276;49.534;6.378;2022-08-03T00:40:09;5.13;;;2.50;;
53775;SDS011;44276;49.534;6.378;2022-08-03T00:42:49;3.10;;;2.08;;
53775;SDS011;44276;49.534;6.378;2022-08-03T00:45:21;2.72;;;2.22;;
53775;SDS011;44276;49.534;6.378;2022-08-03T00:47:51;4.85;;;1.73;;
53775;SDS011;44276;49.534;6.378;2022-08-03T00:50:24;4.30;;;1.70;;
53775;SDS011;44276;49.534;6.378;2022-08-03T00:52:58;2.17;;;1.70;;
53775;SDS011;44276;49.534;6.378;2022-08-03T00:55:29;2.17;;;1.80;;
53775;SDS011;44276;49.534;6.378;2022-08-03T00:57:58;3.05;;;2.38;;
53775;SDS011;44276;49.534;6.378;2022-08-03T01:00:32;2.05;;;1.40;;
53775;SDS011;44276;49.534;6.378;2022-08-03T01:03:05;9.48;;;2.22;;
53775;SDS011;44276;49.534;6.378;2022-08-03T01:05:37;4.32;;;1.80;;
53775;SDS011;44276;49.534;6.378;2022-08-03T01:08:17;3.00;;;2.03;;
53775;SDS011;44276;49.534;6.378;2022-08-03T01:10:59;4.40;;;2.85;;
53775;SDS011;44276;49.534;6.378;2022-08-03T01:13:38;2.70;;;2.10;;
53775;SDS011;44276;49.534;6.378;2022-08-03T01:16:38;2.72;;;2.08;;
53775;SDS011;44276;49.534;6.378;2022-08-03T01:19:20;6.38;;;3.42;;
53775;SDS011;44276;49.534;6.378;2022-08-03T01:22:27;2.70;;;2.33;;
53775;SDS011;44276;49.534;6.378;2022-08-03T01:25:36;4.47;;;1.92;;
53775;SDS011;44276;49.534;6.378;2022-08-03T01:28:32;3.40;;;2.10;;
53775;SDS011;44276;49.534;6.378;2022-08-03T01:31:34;4.20;;;1.60;;
53775;SDS011;44276;49.534;6.378;2022-08-03T01:34:30;2.58;;;2.25;;
53775;SDS011;44276;49.534;6.378;2022-08-03T01:37:03;4.70;;;2.17;;
53775;SDS011;44276;49.534;6.378;2022-08-03T01:39:35;7.53;;;2.20;;
53775;SDS011;44276;49.534;6.378;2022-08-03T01:42:07;4.50;;;2.47;;
53775;SDS011;44276;49.534;6.378;2022-08-03T01:44:41;6.32;;;2.42;;
53775;SDS011;44276;49.534;6.378;2022-08-03T01:47:15;7.88;;;2.15;;
53775;SDS011;44276;49.534;6.378;2022-08-03T01:49:48;6.22;;;2.78;;
53775;SDS011;44276;49.534;6.378;2022-08-03T01:52:19;3.13;;;2.05;;
53775;SDS011;44276;49.534;6.378;2022-08-03T01:54:50;2.60;;;2.30;;
53775;SDS011;44276;49.534;6.378;2022-08-03T01:57:20;3.03;;;2.25;;
53775;SDS011;44276;49.534;6.378;2022-08-03T01:59:50;6.80;;;3.05;;
53775;SDS011;44276;49.534;6.378;2022-08-03T02:02:23;3.40;;;2.90;;
53775;SDS011;44276;49.534;6.378;2022-08-03T02:05:00;4.93;;;3.10;;
53775;SDS011;44276;49.534;6.378;2022-08-03T02:10:07;3.92;;;2.30;;
53775;SDS011;44276;49.534;6.378;2022-08-03T02:12:39;4.00;;;2.35;;
53775;SDS011;44276;49.534;6.378;2022-08-03T02:15:11;2.47;;;2.03;;
53775;SDS011;44276;49.534;6.378;2022-08-03T02:17:46;3.05;;;2.05;;
53775;SDS011;44276;49.534;6.378;2022-08-03T02:20:15;2.97;;;2.63;;
53775;SDS011;44276;49.534;6.378;2022-08-03T02:22:45;6.00;;;2.03;;
53775;SDS011;44276;49.534;6.378;2022-08-03T02:25:14;4.13;;;2.28;;
53775;SDS011;44276;49.534;6.378;2022-08-03T02:27:45;2.95;;;2.03;;
53775;SDS011;44276;49.534;6.378;2022-08-03T02:30:21;6.05;;;3.10;;
53775;SDS011;44276;49.534;6.378;2022-08-03T02:32:59;7.85;;;3.53;;
53775;SDS011;44276;49.534;6.378;2022-08-03T02:35:28;4.15;;;2.60;;
53775;SDS011;44276;49.534;6.378;2022-08-03T02:38:01;4.63;;;2.88;;
53775;SDS011;44276;49.534;6.378;2022-08-03T02:40:31;3.38;;;2.30;;
53775;SDS011;44276;49.534;6.378;2022-08-03T02:43:01;3.33;;;3.00;;
53775;SDS011;44276;49.534;6.378;2022-08-03T02:45:35;5.63;;;3.42;;
53775;SDS011;44276;49.534;6.378;2022-08-03T02:48:14;5.60;;;2.75;;
53775;SDS011;44276;49.534;6.378;2022-08-03T02:50:48;3.42;;;2.65;;
53775;SDS011;44276;49.534;6.378;2022-08-03T02:53:22;6.85;;;2.88;;
53775;SDS011;44276;49.534;6.378;2022-08-03T02:55:51;5.57;;;2.92;;
53775;SDS011;44276;49.534;6.378;2022-08-03T02:58:23;5.95;;;3.65;;
53775;SDS011;44276;49.534;6.378;2022-08-03T03:00:52;6.35;;;3.35;;
53775;SDS011;44276;49.534;6.378;2022-08-03T03:03:23;6.80;;;3.50;;
53775;SDS011;44276;49.534;6.378;2022-08-03T03:05:57;3.30;;;2.30;;
53775;SDS011;44276;49.534;6.378;2022-08-03T03:08:31;4.93;;;2.60;;
53775;SDS011;44276;49.534;6.378;2022-08-03T03:11:04;6.43;;;3.55;;
53775;SDS011;44276;49.534;6.378;2022-08-03T03:13:35;4.93;;;3.35;;
53775;SDS011;44276;49.534;6.378;2022-08-03T03:16:04;4.05;;;3.20;;
53775;SDS011;44276;49.534;6.378;2022-08-03T03:18:36;9.10;;;3.00;;
53775;SDS011;44276;49.534;6.378;2022-08-03T03:21:06;4.65;;;3.45;;
53775;SDS011;44276;49.534;6.378;2022-08-03T03:23:37;8.45;;;3.10;;
53775;SDS011;44276;49.534;6.378;2022-08-03T03:26:08;5.03;;;3.33;;
53775;SDS011;44276;49.534;6.378;2022-08-03T03:28:41;4.57;;;3.50;;
53775;SDS011;44276;49.534;6.378;2022-08-03T03:31:11;7.85;;;3.63;;
53775;SDS011;44276;49.534;6.378;2022-08-03T03:33:41;5.38;;;3.13;;
53775;SDS011;44276;49.534;6.378;2022-08-03T03:36:10;4.30;;;2.92;;
53775;SDS011;44276;49.534;6.378;2022-08-03T03:38:38;5.20;;;3.15;;
53775;SDS011;44276;49.534;6.378;2022-08-03T03:41:07;6.40;;;4.45;;
53775;SDS011;44276;49.534;6.378;2022-08-03T03:43:36;6.68;;;3.53;;
53775;SDS011;44276;49.534;6.378;2022-08-03T03:46:05;5.57;;;3.30;;
53775;SDS011;44276;49.534;6.378;2022-08-03T03:48:33;4.90;;;3.40;;
53775;SDS011;44276;49.534;6.378;2022-08-03T03:51:03;7.70;;;4.18;;
53775;SDS011;44276;49.534;6.378;2022-08-03T03:53:33;4.40;;;2.92;;
53775;SDS011;44276;49.534;6.378;2022-08-03T03:56:01;8.00;;;3.40;;
53775;SDS011;44276;49.534;6.378;2022-08-03T03:58:31;6.82;;;2.90;;
53775;SDS011;44276;49.534;6.378;2022-08-03T04:01:02;3.17;;;2.63;;
53775;SDS011;44276;49.534;6.378;2022-08-03T04:03:30;4.97;;;3.97;;
53775;SDS011;44276;49.534;6.378;2022-08-03T04:05:59;8.80;;;4.03;;
53775;SDS011;44276;49.534;6.378;2022-08-03T04:08:46;6.65;;;3.40;;
53775;SDS011;44276;49.534;6.378;2022-08-03T04:11:33;8.65;;;3.38;;
53775;SDS011;44276;49.534;6.378;2022-08-03T04:14:09;6.00;;;4.63;;
53775;SDS011;44276;49.534;6.378;2022-08-03T04:16:41;6.75;;;4.10;;
53775;SDS011;44276;49.534;6.378;2022-08-03T04:19:16;5.85;;;4.10;;
53775;SDS011;44276;49.534;6.378;2022-08-03T04:21:52;9.55;;;3.92;;
53775;SDS011;44276;49.534;6.378;2022-08-03T04:24:29;6.05;;;4.32;;
53775;SDS011;44276;49.534;6.378;2022-08-03T04:27:02;4.75;;;3.65;;
53775;SDS011;44276;49.534;6.378;2022-08-03T04:29:36;5.50;;;4.07;;
53775;SDS011;44276;49.534;6.378;2022-08-03T04:32:14;5.93;;;3.40;;
53775;SDS011;44276;49.534;6.378;2022-08-03T04:34:44;5.60;;;3.35;;
53775;SDS011;44276;49.534;6.378;2022-08-03T04:37:13;8.88;;;4.03;;
53775;SDS011;44276;49.534;6.378;2022-08-03T04:39:54;5.43;;;2.90;;
53775;SDS011;44276;49.534;6.378;2022-08-03T04:42:28;4.70;;;3.33;;
53775;SDS011;44276;49.534;6.378;2022-08-03T04:45:00;4.85;;;3.55;;
53775;SDS011;44276;49.534;6.378;2022-08-03T04:47:32;4.55;;;3.25;;
53775;SDS011;44276;49.534;6.378;2022-08-03T04:50:04;5.47;;;3.50;;
53775;SDS011;44276;49.534;6.378;2022-08-03T04:52:40;3.30;;;2.85;;
53775;SDS011;44276;49.534;6.378;2022-08-03T04:55:11;5.82;;;3.08;;
53775;SDS011;44276;49.534;6.378;2022-08-03T04:57:39;6.57;;;2.88;;
53775;SDS011;44276;49.534;6.378;2022-08-03T05:00:08;5.18;;;3.35;;
53775;SDS011;44276;49.534;6.378;2022-08-03T05:02:37;6.00;;;3.05;;
53775;SDS011;44276;49.534;6.378;2022-08-03T05:05:06;5.65;;;3.15;;
53775;SDS011;44276;49.534;6.378;2022-08-03T05:07:36;4.47;;;3.72;;
53775;SDS011;44276;49.534;6.378;2022-08-03T05:10:06;5.60;;;3.40;;
53775;SDS011;44276;49.534;6.378;2022-08-03T05:12:43;4.20;;;2.97;;
53775;SDS011;44276;49.534;6.378;2022-08-03T05:15:12;7.10;;;3.50;;
53775;SDS011;44276;49.534;6.378;2022-08-03T05:17:41;3.00;;;2.70;;
53775;SDS011;44276;49.534;6.378;2022-08-03T05:20:09;5.20;;;3.50;;
53775;SDS011;44276;49.534;6.378;2022-08-03T05:22:41;4.32;;;2.90;;
53775;SDS011;44276;49.534;6.378;2022-08-03T05:25:09;3.13;;;2.10;;
53775;SDS011;44276;49.534;6.378;2022-08-03T05:27:46;4.40;;;1.73;;
53775;SDS011;44276;49.534;6.378;2022-08-03T05:30:15;4.20;;;1.80;;
53775;SDS011;44276;49.534;6.378;2022-08-03T05:32:59;2.53;;;1.20;;
53775;SDS011;44276;49.534;6.378;2022-08-03T05:35:29;1.83;;;1.42;;
53775;SDS011;44276;49.534;6.378;2022-08-03T05:38:20;1.98;;;1.70;;
53775;SDS011;44276;49.534;6.378;2022-08-03T05:40:54;1.83;;;1.55;;
53775;SDS011;44276;49.534;6.378;2022-08-03T05:43:44;3.08;;;1.65;;
53775;SDS011;44276;49.534;6.378;2022-08-03T05:46:13;1.75;;;1.42;;
53775;SDS011;44276;49.534;6.378;2022-08-03T05:48:41;1.73;;;1.10;;
53775;SDS011;44276;49.534;6.378;2022-08-03T05:51:10;3.67;;;2.25;;
53775;SDS011;44276;49.534;6.378;2022-08-03T05:53:39;3.55;;;0.82;;
53775;SDS011;44276;49.534;6.378;2022-08-03T05:56:08;5.22;;;1.33;;
53775;SDS011;44276;49.534;6.378;2022-08-03T05:58:41;5.40;;;1.30;;
53775;SDS011;44276;49.534;6.378;2022-08-03T06:01:12;2.40;;;1.42;;
53775;SDS011;44276;49.534;6.378;2022-08-03T06:03:40;1.65;;;1.40;;
53775;SDS011;44276;49.534;6.378;2022-08-03T06:06:08;2.97;;;1.52;;
53775;SDS011;44276;49.534;6.378;2022-08-03T06:08:37;2.08;;;1.33;;
53775;SDS011;44276;49.534;6.378;2022-08-03T06:11:06;1.52;;;1.10;;
53775;SDS011;44276;49.534;6.378;2022-08-03T06:13:35;4.43;;;1.35;;
53775;SDS011;44276;49.534;6.378;2022-08-03T06:16:03;1.42;;;1.17;;
53775;SDS011;44276;49.534;6.378;2022-08-03T06:18:33;4.53;;;1.35;;
53775;SDS011;44276;49.534;6.378;2022-08-03T06:21:02;2.63;;;1.10;;
53775;SDS011;44276;49.534;6.378;2022-08-03T06:23:41;5.15;;;1.65;;
53775;SDS011;44276;49.534;6.378;2022-08-03T06:26:21;3.05;;;0.90;;
53775;SDS011;44276;49.534;6.378;2022-08-03T06:28:51;1.65;;;0.82;;
53775;SDS011;44276;49.534;6.378;2022-08-03T06:31:20;2.58;;;1.88;;
53775;SDS011;44276;49.534;6.378;2022-08-03T06:34:00;1.80;;;1.42;;
53775;SDS011;44276;49.534;6.378;2022-08-03T06:36:49;1.80;;;1.15;;
53775;SDS011;44276;49.534;6.378;2022-08-03T06:39:18;2.60;;;1.23;;
53775;SDS011;44276;49.534;6.378;2022-08-03T06:41:49;3.03;;;1.50;;
53775;SDS011;44276;49.534;6.378;2022-08-03T06:44:18;3.42;;;1.45;;
53775;SDS011;44276;49.534;6.378;2022-08-03T06:46:47;1.33;;;1.10;;
53775;SDS011;44276;49.534;6.378;2022-08-03T06:49:17;5.18;;;1.10;;
53775;SDS011;44276;49.534;6.378;2022-08-03T06:51:46;1.83;;;1.10;;
53775;SDS011;44276;49.534;6.378;2022-08-03T06:54:31;2.22;;;1.42;;
53775;SDS011;44276;49.534;6.378;2022-08-03T06:57:01;6.95;;;1.50;;
53775;SDS011;44276;49.534;6.378;2022-08-03T06:59:30;3.13;;;1.15;;
53775;SDS011;44276;49.534;6.378;2022-08-03T07:02:18;1.10;;;1.00;;
53775;SDS011;44276;49.534;6.378;2022-08-03T07:04:48;1.20;;;0.90;;
53775;SDS011;44276;49.534;6.378;2022-08-03T07:07:18;2.28;;;1.10;;
53775;SDS011;44276;49.534;6.378;2022-08-03T07:09:46;2.50;;;2.10;;
53775;SDS011;44276;49.534;6.378;2022-08-03T07:12:23;1.00;;;0.95;;
53775;SDS011;44276;49.534;6.378;2022-08-03T07:14:53;5.60;;;2.03;;
53775;SDS011;44276;49.534;6.378;2022-08-03T07:17:26;5.35;;;1.25;;
53775;SDS011;44276;49.534;6.378;2022-08-03T07:19:56;1.50;;;1.10;;
53775;SDS011;44276;49.534;6.378;2022-08-03T07:22:26;7.43;;;1.58;;
53775;SDS011;44276;49.534;6.378;2022-08-03T07:24:54;4.25;;;1.02;;
53775;SDS011;44276;49.534;6.378;2022-08-03T07:27:23;1.92;;;1.23;;
53775;SDS011;44276;49.534;6.378;2022-08-03T07:29:53;1.98;;;0.90;;
53775;SDS011;44276;49.534;6.378;2022-08-03T07:32:22;5.10;;;1.70;;
53775;SDS011;44276;49.534;6.378;2022-08-03T07:34:51;3.85;;;1.67;;
53775;SDS011;44276;49.534;6.378;2022-08-03T07:37:27;3.28;;;1.83;;
53775;SDS011;44276;49.534;6.378;2022-08-03T07:39:56;5.38;;;2.78;;
53775;SDS011;44276;49.534;6.378;2022-08-03T07:42:25;4.15;;;1.92;;
53775;SDS011;44276;49.534;6.378;2022-08-03T07:44:54;5.72;;;1.60;;
53775;SDS011;44276;49.534;6.378;2022-08-03T07:47:23;3.63;;;1.50;;
53775;SDS011;44276;49.534;6.378;2022-08-03T07:50:01;7.78;;;1.70;;
53775;SDS011;44276;49.534;6.378;2022-08-03T07:52:35;4.45;;;1.50;;
53775;SDS011;44276;49.534;6.378;2022-08-03T07:55:17;2.60;;;1.40;;
53775;SDS011;44276;49.534;6.378;2022-08-03T07:57:47;0.95;;;0.75;;
53775;SDS011;44276;49.534;6.378;2022-08-03T08:00:30;2.13;;;0.95;;
53775;SDS011;44276;49.534;6.378;2022-08-03T08:02:59;2.15;;;0.80;;
53775;SDS011;44276;49.534;6.378;2022-08-03T08:05:28;1.65;;;0.95;;
53775;SDS011;44276;49.534;6.378;2022-08-03T08:07:57;1.00;;;0.88;;
53775;SDS011;44276;49.534;6.378;2022-08-03T08:10:26;3.05;;;1.00;;
53775;SDS011;44276;49.534;6.378;2022-08-03T08:12:55;1.42;;;0.90;;
53775;SDS011;44276;49.534;6.378;2022-08-03T08:15:23;1.55;;;0.95;;
53775;SDS011;44276;49.534;6.378;2022-08-03T08:17:53;1.58;;;0.80;;
53775;SDS011;44276;49.534;6.378;2022-08-03T08:20:26;1.02;;;0.52;;
53775;SDS011;44276;49.534;6.378;2022-08-03T08:22:59;3.30;;;1.10;;
53775;SDS011;44276;49.534;6.378;2022-08-03T08:25:50;1.23;;;0.85;;
53775;SDS011;44276;49.534;6.378;2022-08-03T08:28:19;2.42;;;0.63;;
53775;SDS011;44276;49.534;6.378;2022-08-03T08:31:02;3.42;;;0.70;;
53775;SDS011;44276;49.534;6.378;2022-08-03T08:33:31;1.15;;;0.85;;
53775;SDS011;44276;49.534;6.378;2022-08-03T08:36:21;2.75;;;0.90;;
53775;SDS011;44276;49.534;6.378;2022-08-03T08:38:50;1.83;;;0.90;;
53775;SDS011;44276;49.534;6.378;2022-08-03T08:41:19;4.22;;;0.73;;
53775;SDS011;44276;49.534;6.378;2022-08-03T08:43:47;4.28;;;0.70;;
53775;SDS011;44276;49.534;6.378;2022-08-03T08:46:15;3.35;;;0.73;;
53775;SDS011;44276;49.534;6.378;2022-08-03T08:48:49;7.70;;;1.00;;
53775;SDS011;44276;49.534;6.378;2022-08-03T08:51:20;3.83;;;1.15;;
53775;SDS011;44276;49.534;6.378;2022-08-03T08:54:12;8.25;;;0.75;;
53775;SDS011;44276;49.534;6.378;2022-08-03T08:56:41;2.67;;;1.13;;
53775;SDS011;44276;49.534;6.378;2022-08-03T08:59:11;1.65;;;0.80;;
53775;SDS011;44276;49.534;6.378;2022-08-03T09:01:45;3.47;;;0.70;;
53775;SDS011;44276;49.534;6.378;2022-08-03T09:04:14;4.53;;;0.98;;
53775;SDS011;44276;49.534;6.378;2022-08-03T09:06:43;2.85;;;0.68;;
53775;SDS011;44276;49.534;6.378;2022-08-03T09:09:33;1.35;;;0.70;;
53775;SDS011;44276;49.534;6.378;2022-08-03T09:12:21;5.50;;;0.77;;
53775;SDS011;44276;49.534;6.378;2022-08-03T09:15:20;1.95;;;0.35;;
53775;SDS011;44276;49.534;6.378;2022-08-03T09:17:52;3.25;;;0.65;;
53775;SDS011;44276;49.534;6.378;2022-08-03T09:20:24;3.60;;;0.70;;
53775;SDS011;44276;49.534;6.378;2022-08-03T09:22:55;1.67;;;0.50;;
53775;SDS011;44276;49.534;6.378;2022-08-03T09:25:28;8.60;;;0.90;;
53775;SDS011;44276;49.534;6.378;2022-08-03T09:28:09;1.80;;;0.63;;
53775;SDS011;44276;49.534;6.378;2022-08-03T09:31:00;2.15;;;0.52;;
53775;SDS011;44276;49.534;6.378;2022-08-03T09:33:28;3.67;;;0.88;;
53775;SDS011;44276;49.534;6.378;2022-08-03T09:36:01;7.00;;;0.70;;
53775;SDS011;44276;49.534;6.378;2022-08-03T09:38:29;2.80;;;0.80;;
53775;SDS011;44276;49.534;6.378;2022-08-03T09:40:59;2.30;;;0.82;;
53775;SDS011;44276;49.534;6.378;2022-08-03T09:43:27;2.72;;;0.80;;
53775;SDS011;44276;49.534;6.378;2022-08-03T09:46:12;3.33;;;0.60;;
53775;SDS011;44276;49.534;6.378;2022-08-03T09:48:40;5.43;;;0.63;;
53775;SDS011;44276;49.534;6.378;2022-08-03T09:51:09;4.15;;;0.73;;
53775;SDS011;44276;49.534;6.378;2022-08-03T09:53:59;5.50;;;0.77;;
53775;SDS011;44276;49.534;6.378;2022-08-03T09:56:42;3.40;;;1.27;;
53775;SDS011;44276;49.534;6.378;2022-08-03T09:59:15;3.45;;;0.73;;
53775;SDS011;44276;49.534;6.378;2022-08-03T10:01:51;3.67;;;0.60;;
53775;SDS011;44276;49.534;6.378;2022-08-03T10:04:20;0.70;;;0.60;;
53775;SDS011;44276;49.534;6.378;2022-08-03T10:09:39;3.33;;;1.05;;
53775;SDS011;44276;49.534;6.378;2022-08-03T10:12:46;2.97;;;0.57;;
53775;SDS011;44276;49.534;6.378;2022-08-03T10:15:14;0.95;;;0.43;;
53775;SDS011;44276;49.534;6.378;2022-08-03T10:18:03;2.03;;;0.40;;
53775;SDS011;44276;49.534;6.378;2022-08-03T10:20:32;1.67;;;0.60;;
53775;SDS011;44276;49.534;6.378;2022-08-03T10:23:07;4.63;;;0.40;;
53775;SDS011;44276;49.534;6.378;2022-08-03T10:25:37;3.33;;;0.50;;
53775;SDS011;44276;49.534;6.378;2022-08-03T10:28:11;3.03;;;0.40;;
53775;SDS011;44276;49.534;6.378;2022-08-03T10:30:47;2.35;;;0.60;;
53775;SDS011;44276;49.534;6.378;2022-08-03T10:33:19;3.53;;;0.63;;
53775;SDS011;44276;49.534;6.378;2022-08-03T10:36:14;2.77;;;0.63;;
53775;SDS011;44276;49.534;6.378;2022-08-03T10:38:43;0.75;;;0.60;;
53775;SDS011;44276;49.534;6.378;2022-08-03T10:41:18;23.38;;;2.10;;
53775;SDS011;44276;49.534;6.378;2022-08-03T10:43:52;4.32;;;0.60;;
53775;SDS011;44276;49.534;6.378;2022-08-03T10:46:25;2.28;;;1.20;;
53775;SDS011;44276;49.534;6.378;2022-08-03T10:48:55;1.83;;;0.80;;
53775;SDS011;44276;49.534;6.378;2022-08-03T10:51:24;2.30;;;0.55;;
53775;SDS011;44276;49.534;6.378;2022-08-03T10:53:57;2.22;;;0.73;;
53775;SDS011;44276;49.534;6.378;2022-08-03T10:56:36;3.20;;;0.40;;
53775;SDS011;44276;49.534;6.378;2022-08-03T10:59:59;0.85;;;0.30;;
53775;SDS011;44276;49.534;6.378;2022-08-03T11:05:43;2.58;;;1.08;;
53775;SDS011;44276;49.534;6.378;2022-08-03T11:08:18;4.30;;;0.70;;
53775;SDS011;44276;49.534;6.378;2022-08-03T11:10:56;2.80;;;0.43;;
53775;SDS011;44276;49.534;6.378;2022-08-03T11:13:28;2.58;;;0.43;;
53775;SDS011;44276;49.534;6.378;2022-08-03T11:16:02;5.32;;;0.68;;
53775;SDS011;44276;49.534;6.378;2022-08-03T11:18:54;3.58;;;0.68;;
53775;SDS011;44276;49.534;6.378;2022-08-03T11:21:52;0.85;;;0.50;;
53775;SDS011;44276;49.534;6.378;2022-08-03T11:27:28;1.17;;;0.40;;
53775;SDS011;44276;49.534;6.378;2022-08-03T11:30:03;2.67;;;0.40;;
53775;SDS011;44276;49.534;6.378;2022-08-03T11:32:55;2.25;;;0.28;;
53775;SDS011;44276;49.534;6.378;2022-08-03T11:35:28;2.28;;;0.30;;
53775;SDS011;44276;49.534;6.378;2022-08-03T11:38:09;5.03;;;0.63;;
53775;SDS011;44276;49.534;6.378;2022-08-03T11:40:39;3.85;;;1.00;;
53775;SDS011;44276;49.534;6.378;2022-08-03T11:46:14;3.20;;;0.45;;
53775;SDS011;44276;49.534;6.378;2022-08-03T11:49:01;1.30;;;0.45;;
53775;SDS011;44276;49.534;6.378;2022-08-03T11:51:36;0.95;;;0.35;;
53775;SDS011;44276;49.534;6.378;2022-08-03T11:54:05;1.08;;;0.40;;
53775;SDS011;44276;49.534;6.378;2022-08-03T11:56:43;0.98;;;0.40;;
53775;SDS011;44276;49.534;6.378;2022-08-03T11:59:14;3.50;;;0.55;;
53775;SDS011;44276;49.534;6.378;2022-08-03T12:01:47;3.40;;;0.75;;
53775;SDS011;44276;49.534;6.378;2022-08-03T12:04:19;3.10;;;0.45;;
53775;SDS011;44276;49.534;6.378;2022-08-03T12:06:57;1.35;;;0.52;;
53775;SDS011;44276;49.534;6.378;2022-08-03T12:09:26;2.50;;;0.65;;
53775;SDS011;44276;49.534;6.378;2022-08-03T12:11:54;2.03;;;0.40;;
53775;SDS011;44276;49.534;6.378;2022-08-03T12:14:26;0.50;;;0.20;;
53775;SDS011;44276;49.534;6.378;2022-08-03T12:17:15;3.28;;;0.52;;
53775;SDS011;44276;49.534;6.378;2022-08-03T12:19:45;2.03;;;0.43;;
53775;SDS011;44276;49.534;6.378;2022-08-03T12:22:14;2.50;;;0.50;;
53775;SDS011;44276;49.534;6.378;2022-08-03T12:24:43;2.70;;;0.22;;
53775;SDS011;44276;49.534;6.378;2022-08-03T12:27:21;4.38;;;0.30;;
53775;SDS011;44276;49.534;6.378;2022-08-03T12:29:52;6.43;;;0.47;;
53775;SDS011;44276;49.534;6.378;2022-08-03T12:32:24;1.55;;;0.30;;
53775;SDS011;44276;49.534;6.378;2022-08-03T12:34:54;0.95;;;0.50;;
53775;SDS011;44276;49.534;6.378;2022-08-03T12:37:27;1.90;;;0.67;;
53775;SDS011;44276;49.534;6.378;2022-08-03T12:39:57;2.97;;;0.50;;
53775;SDS011;44276;49.534;6.378;2022-08-03T12:42:36;1.33;;;0.50;;
53775;SDS011;44276;49.534;6.378;2022-08-03T12:45:18;1.27;;;0.20;;
53775;SDS011;44276;49.534;6.378;2022-08-03T12:47:52;0.85;;;0.50;;
53775;SDS011;44276;49.534;6.378;2022-08-03T12:50:23;2.10;;;0.40;;
53775;SDS011;44276;49.534;6.378;2022-08-03T12:52:55;3.28;;;0.20;;
53775;SDS011;44276;49.534;6.378;2022-08-03T12:55:25;1.90;;;0.50;;
53775;SDS011;44276;49.534;6.378;2022-08-03T12:58:27;0.52;;;0.20;;
53775;SDS011;44276;49.534;6.378;2022-08-03T13:01:00;2.03;;;0.40;;
53775;SDS011;44276;49.534;6.378;2022-08-03T13:03:37;0.73;;;0.20;;
53775;SDS011;44276;49.534;6.378;2022-08-03T13:06:13;1.02;;;0.30;;
53775;SDS011;44276;49.534;6.378;2022-08-03T13:08:44;1.13;;;0.30;;
53775;SDS011;44276;49.534;6.378;2022-08-03T13:11:20;2.15;;;0.20;;
53775;SDS011;44276;49.534;6.378;2022-08-03T13:14:12;0.38;;;0.28;;
53775;SDS011;44276;49.534;6.378;2022-08-03T13:16:45;0.82;;;0.20;;
53775;SDS011;44276;49.534;6.378;2022-08-03T13:19:14;0.50;;;0.35;;
53775;SDS011;44276;49.534;6.378;2022-08-03T13:21:44;0.25;;;0.10;;
53775;SDS011;44276;49.534;6.378;2022-08-03T13:24:30;0.65;;;0.20;;
53775;SDS011;44276;49.534;6.378;2022-08-03T13:26:59;1.92;;;0.20;;
53775;SDS011;44276;49.534;6.378;2022-08-03T13:29:50;1.23;;;0.35;;
53775;SDS011;44276;49.534;6.378;2022-08-03T13:32:19;1.27;;;0.30;;
53775;SDS011;44276;49.534;6.378;2022-08-03T13:34:48;1.80;;;0.40;;
53775;SDS011;44276;49.534;6.378;2022-08-03T13:37:17;0.85;;;0.35;;
53775;SDS011;44276;49.534;6.378;2022-08-03T13:39:46;0.32;;;0.20;;
53775;SDS011;44276;49.534;6.378;2022-08-03T13:42:26;1.48;;;0.50;;
53775;SDS011;44276;49.534;6.378;2022-08-03T13:44:56;1.23;;;0.20;;
53775;SDS011;44276;49.534;6.378;2022-08-03T13:47:24;1.35;;;0.43;;
53775;SDS011;44276;49.534;6.378;2022-08-03T13:49:52;2.58;;;0.50;;
53775;SDS011;44276;49.534;6.378;2022-08-03T13:52:30;1.52;;;0.20;;
53775;SDS011;44276;49.534;6.378;2022-08-03T13:55:00;1.02;;;0.70;;
53775;SDS011;44276;49.534;6.378;2022-08-03T13:57:28;1.63;;;0.40;;
53775;SDS011;44276;49.534;6.378;2022-08-03T14:00:17;0.68;;;0.35;;
53775;SDS011;44276;49.534;6.378;2022-08-03T14:02:54;2.38;;;0.60;;
53775;SDS011;44276;49.534;6.378;2022-08-03T14:05:32;3.13;;;0.50;;
53775;SDS011;44276;49.534;6.378;2022-08-03T14:08:02;1.40;;;0.28;;
53775;SDS011;44276;49.534;6.378;2022-08-03T14:10:32;3.53;;;0.40;;
53775;SDS011;44276;49.534;6.378;2022-08-03T14:13:02;0.30;;;0.10;;
53775;SDS011;44276;49.534;6.378;2022-08-03T14:15:32;1.02;;;0.20;;
53775;SDS011;44276;49.534;6.378;2022-08-03T14:18:03;0.98;;;0.30;;
53775;SDS011;44276;49.534;6.378;2022-08-03T14:20:41;3.78;;;0.50;;
53775;SDS011;44276;49.534;6.378;2022-08-03T14:23:20;2.30;;;0.73;;
53775;SDS011;44276;49.534;6.378;2022-08-03T14:25:49;0.17;;;0.17;;
53775;SDS011;44276;49.534;6.378;2022-08-03T14:28:18;1.40;;;0.38;;
53775;SDS011;44276;49.534;6.378;2022-08-03T14:30:49;1.02;;;0.32;;
53775;SDS011;44276;49.534;6.378;2022-08-03T14:33:20;4.18;;;0.60;;
53775;SDS011;44276;49.534;6.378;2022-08-03T14:35:49;3.15;;;0.20;;
53775;SDS011;44276;49.534;6.378;2022-08-03T14:38:19;0.50;;;0.30;;
53775;SDS011;44276;49.534;6.378;2022-08-03T14:40:49;3.70;;;0.30;;
53775;SDS011;44276;49.534;6.378;2022-08-03T14:43:18;2.70;;;0.43;;
53775;SDS011;44276;49.534;6.378;2022-08-03T14:45:46;1.55;;;0.30;;
53775;SDS011;44276;49.534;6.378;2022-08-03T14:48:17;1.67;;;0.45;;
53775;SDS011;44276;49.534;6.378;2022-08-03T14:51:05;0.82;;;0.22;;
53775;SDS011;44276;49.534;6.378;2022-08-03T14:53:35;5.38;;;0.50;;
53775;SDS011;44276;49.534;6.378;2022-08-03T14:56:03;0.40;;;0.32;;
53775;SDS011;44276;49.534;6.378;2022-08-03T14:58:36;1.35;;;0.30;;
53775;SDS011;44276;49.534;6.378;2022-08-03T15:01:05;3.00;;;0.28;;
53775;SDS011;44276;49.534;6.378;2022-08-03T15:03:53;0.65;;;0.40;;
53775;SDS011;44276;49.534;6.378;2022-08-03T15:06:21;1.45;;;0.50;;
53775;SDS011;44276;49.534;6.378;2022-08-03T15:08:51;1.45;;;0.40;;
53775;SDS011;44276;49.534;6.378;2022-08-03T15:11:39;3.75;;;0.52;;
53775;SDS011;44276;49.534;6.378;2022-08-03T15:14:07;0.52;;;0.28;;
53775;SDS011;44276;49.534;6.378;2022-08-03T15:16:38;2.72;;;0.55;;
53775;SDS011;44276;49.534;6.378;2022-08-03T15:19:07;2.97;;;1.20;;
53775;SDS011;44276;49.534;6.378;2022-08-03T15:21:55;0.65;;;0.40;;
53775;SDS011;44276;49.534;6.378;2022-08-03T15:24:27;1.13;;;0.45;;
53775;SDS011;44276;49.534;6.378;2022-08-03T15:26:56;1.05;;;0.32;;
53775;SDS011;44276;49.534;6.378;2022-08-03T15:29:24;1.52;;;0.30;;
53775;SDS011;44276;49.534;6.378;2022-08-03T15:32:13;1.13;;;0.40;;
53775;SDS011;44276;49.534;6.378;2022-08-03T15:34:45;1.75;;;0.35;;
53775;SDS011;44276;49.534;6.378;2022-08-03T15:37:17;3.22;;;0.50;;
53775;SDS011;44276;49.534;6.378;2022-08-03T15:39:47;2.53;;;0.40;;
53775;SDS011;44276;49.534;6.378;2022-08-03T15:42:25;1.58;;;0.65;;
53775;SDS011;44276;49.534;6.378;2022-08-03T15:44:54;2.50;;;0.50;;